createdAt,value
2023-04-18T00:01:50.640Z,95826.34
2023-04-18T00:04:20.525Z,95830.41
2023-04-18T00:06:50.515Z,95828.53
2023-04-18T00:09:20.168Z,95819.47
2023-04-18T00:11:51.120Z,95827.16
2023-04-18T00:14:21.124Z,95819.94
2023-04-18T00:16:51.647Z,95819.94
2023-04-18T00:19:21.617Z,95815.06
2023-04-18T00:21:53.353Z,95816.94
2023-04-18T00:24:22.980Z,95817.97
2023-04-18T00:26:54.137Z,95817.63
2023-04-18T00:29:23.687Z,95819.25
2023-04-18T00:31:55.590Z,95815.44
2023-04-18T00:34:25.100Z,95812.28
2023-04-18T00:36:56.428Z,95810.91
2023-04-18T00:39:25.899Z,95811.38
2023-04-18T00:41:57.635Z,95803.59
2023-04-18T00:44:27.153Z,95805.94
2023-04-18T00:46:56.769Z,95808.84
2023-04-18T00:49:28.127Z,95809.91
2023-04-18T00:51:58.452Z,95811.19
2023-04-18T00:54:28.843Z,95807.97
2023-04-18T00:57:06.510Z,95809.59
2023-04-18T00:59:36.646Z,95814.13
2023-04-18T01:02:06.538Z,95810.41
2023-04-18T01:04:37.267Z,95812.25
2023-04-18T01:07:08.449Z,95811.69
2023-04-18T01:09:38.307Z,95806.56
2023-04-18T01:12:09.528Z,95803.09
2023-04-18T01:14:43.652Z,95798.78
2023-04-18T01:17:13.456Z,95796.34
2023-04-18T01:19:43.092Z,95800.56
2023-04-18T01:22:16.141Z,95797.88
2023-04-18T01:24:47.040Z,95795.44
2023-04-18T01:27:16.557Z,95790.09
2023-04-18T01:29:46.121Z,95796.25
2023-04-18T01:32:17.588Z,95798.13
2023-04-18T01:34:48.030Z,95790.56
2023-04-18T01:37:17.728Z,95791.63
2023-04-18T01:39:49.516Z,95800.44
2023-04-18T01:42:24.629Z,95792.44
2023-04-18T01:44:54.133Z,95790.22
2023-04-18T01:47:23.867Z,95796.63
2023-04-18T01:49:53.609Z,95795.25
2023-04-18T01:52:23.307Z,95795.47
2023-04-18T01:54:54.501Z,95788.50
2023-04-18T01:57:24.071Z,95790.06
2023-04-18T01:59:53.671Z,95790.38
2023-04-18T02:02:23.369Z,95795.97
2023-04-18T02:04:54.533Z,95790.88
2023-04-18T02:07:24.067Z,95799.13
2023-04-18T02:09:55.084Z,95788.66
2023-04-18T02:12:24.594Z,95791.81
2023-04-18T02:14:54.982Z,95792.88
2023-04-18T02:17:25.363Z,95792.88
2023-04-18T02:19:57.473Z,95794.16
2023-04-18T02:22:27.046Z,95798.69
2023-04-18T02:24:57.866Z,95798.91
2023-04-18T02:27:49.276Z,95802.66
2023-04-18T02:30:18.749Z,95793.81
2023-04-18T02:32:48.302Z,95796.94
2023-04-18T02:35:17.782Z,95802.31
2023-04-18T02:37:49.877Z,95799.06
2023-04-18T02:40:21.840Z,95802.19
2023-04-18T02:42:51.341Z,95803.47
2023-04-18T02:45:20.999Z,95802.94
2023-04-18T02:47:55.514Z,95797.59
2023-04-18T02:50:27.045Z,95798.63
2023-04-18T02:52:57.982Z,95795.38
2023-04-18T02:55:35.999Z,95791.09
2023-04-18T02:58:05.529Z,95785.97
2023-04-18T03:01:01.125Z,95788.88
2023-04-18T03:03:55.929Z,95787.25
2023-04-18T03:06:35.380Z,95790.97
2023-04-18T03:09:05.761Z,95785.06
2023-04-18T03:11:39.447Z,95786.34
2023-04-18T03:14:09.268Z,95789.81
2023-04-18T03:17:04.839Z,95777.75
2023-04-18T03:19:40.328Z,95785.19
2023-04-18T03:22:14.059Z,95784.38
2023-04-18T03:25:00.333Z,95781.34
2023-04-18T03:27:53.963Z,95780.44
2023-04-18T03:30:26.938Z,95779.66
2023-04-18T03:32:58.689Z,95781.97
2023-04-18T03:35:28.443Z,95788.13
2023-04-18T03:37:58.576Z,95785.69
2023-04-18T03:40:32.194Z,95778.72
2023-04-18T03:43:11.793Z,95788.00
2023-04-18T03:45:41.371Z,95785.56
2023-04-18T03:48:10.854Z,95785.34
2023-04-18T03:50:44.628Z,95785.34
2023-04-18T03:53:14.431Z,95784.53
2023-04-18T03:55:44.453Z,95780.66
2023-04-18T03:58:23.472Z,95780.09
2023-04-18T04:00:53.749Z,95786.47
2023-04-18T04:03:23.408Z,95782.41
2023-04-18T04:05:53.668Z,95787.50
2023-04-18T04:08:23.680Z,95786.13
2023-04-18T04:10:53.175Z,95784.50
2023-04-18T04:13:24.144Z,95790.06
2023-04-18T04:15:53.880Z,95796.22
2023-04-18T04:18:29.796Z,95799.34
2023-04-18T04:21:01.522Z,95791.84
2023-04-18T04:23:43.196Z,95804.13
2023-04-18T04:26:18.182Z,95801.44
2023-04-18T04:28:57.402Z,95793.94
2023-04-18T04:31:29.817Z,95804.84
2023-04-18T04:33:59.858Z,95799.97
2023-04-18T04:36:29.332Z,95797.75
2023-04-18T04:39:02.678Z,95796.81
2023-04-18T04:41:39.483Z,95800.31
2023-04-18T04:44:10.879Z,95791.47
2023-04-18T04:46:42.141Z,95796.81
2023-04-18T04:49:17.507Z,95802.41
2023-04-18T04:51:47.033Z,95806.69
2023-04-18T04:54:16.703Z,95797.63
2023-04-18T04:56:46.517Z,95795.78
2023-04-18T04:59:17.589Z,95807.28
2023-04-18T05:01:48.311Z,95801.13
2023-04-18T05:04:18.429Z,95796.38
2023-04-18T05:06:48.275Z,95801.47
2023-04-18T05:09:17.874Z,95804.94
2023-04-18T05:11:49.281Z,95809.47
2023-04-18T05:14:20.766Z,95810.06
2023-04-18T05:16:50.293Z,95813.31
2023-04-18T05:19:19.878Z,95812.72
2023-04-18T05:21:49.406Z,95812.97
2023-04-18T05:24:19.331Z,95803.91
2023-04-18T05:26:48.927Z,95817.50
2023-04-18T05:29:19.737Z,95813.78
2023-04-18T05:31:49.206Z,95817.25
2023-04-18T05:34:18.640Z,95821.22
2023-04-18T05:36:48.607Z,95819.13
2023-04-18T05:39:18.137Z,95810.06
2023-04-18T05:41:47.760Z,95825.84
2023-04-18T05:44:18.093Z,95818.44
2023-04-18T05:46:51.354Z,95815.06
2023-04-18T05:49:21.029Z,95811.91
2023-04-18T05:51:50.645Z,95817.59
2023-04-18T05:54:21.453Z,95817.13
2023-04-18T05:56:51.003Z,95817.47
2023-04-18T05:59:20.747Z,95824.25
2023-04-18T06:01:51.566Z,95827.13
2023-04-18T06:04:22.073Z,95831.41
2023-04-18T06:06:51.835Z,95833.06
2023-04-18T06:09:21.360Z,95822.75
2023-04-18T06:11:50.808Z,95832.16
2023-04-18T06:14:20.234Z,95839.78
2023-04-18T06:16:51.178Z,95845.00
2023-04-18T06:19:20.684Z,95840.81
2023-04-18T06:21:50.728Z,95842.81
2023-04-18T06:24:20.378Z,95837.91
2023-04-18T06:26:49.853Z,95844.97
2023-04-18T06:29:19.454Z,95851.00
2023-04-18T06:31:49.257Z,95855.31
2023-04-18T06:34:20.126Z,95855.66
2023-04-18T06:36:49.848Z,95855.66
2023-04-18T06:39:19.344Z,95858.09
2023-04-18T06:41:49.744Z,95858.91
2023-04-18T06:44:32.099Z,95856.09
2023-04-18T06:47:01.575Z,95866.06
2023-04-18T06:49:32.552Z,95864.31
2023-04-18T06:52:02.132Z,95864.97
2023-04-18T06:54:31.846Z,95859.84
2023-04-18T06:57:02.152Z,95861.22
2023-04-18T06:59:31.724Z,95859.19
2023-04-18T07:02:01.202Z,95863.38
2023-04-18T07:04:32.053Z,95860.22
2023-04-18T07:07:01.785Z,95859.97
2023-04-18T07:09:31.336Z,95858.78
2023-04-18T07:12:00.856Z,95863.63
2023-04-18T07:14:32.251Z,95866.41
2023-04-18T07:17:03.251Z,95862.44
2023-04-18T07:19:34.159Z,95865.94
2023-04-18T07:22:03.694Z,95858.22
2023-04-18T07:24:33.132Z,95861.25
2023-04-18T07:27:03.619Z,95865.16
2023-04-18T07:29:33.144Z,95860.69
2023-04-18T07:32:03.066Z,95870.91
2023-04-18T07:34:36.044Z,95871.25
2023-04-18T07:37:05.596Z,95862.00
2023-04-18T07:39:36.175Z,95863.63
2023-04-18T07:42:05.967Z,95863.03
2023-04-18T07:44:37.166Z,95872.16
2023-04-18T07:47:10.883Z,95861.31
2023-04-18T07:49:41.758Z,95860.16
2023-04-18T07:52:11.301Z,95862.41
2023-04-18T07:54:40.760Z,95853.13
2023-04-18T07:57:10.776Z,95850.81
2023-04-18T07:59:40.921Z,95847.47
2023-04-18T08:02:10.555Z,95842.19
2023-04-18T08:04:41.617Z,95848.31
2023-04-18T08:07:11.288Z,95849.00
2023-04-18T08:09:41.003Z,95847.31
2023-04-18T08:12:10.704Z,95853.56
2023-04-18T08:14:40.256Z,95858.59
2023-04-18T08:17:09.742Z,95859.19
2023-04-18T08:19:39.218Z,95860.31
2023-04-18T08:22:11.580Z,95861.94
2023-04-18T08:24:57.242Z,95866.25
2023-04-18T08:27:31.777Z,95867.31
2023-04-18T08:30:03.968Z,95864.88
2023-04-18T08:32:33.637Z,95871.25
2023-04-18T08:35:03.809Z,95876.09
2023-04-18T08:37:35.350Z,95880.13
2023-04-18T08:40:07.215Z,95871.06
2023-04-18T08:42:38.207Z,95880.84
2023-04-18T08:45:09.617Z,95889.28
2023-04-18T08:47:39.147Z,95888.88
2023-04-18T08:50:12.653Z,95885.72
2023-04-18T08:52:48.799Z,95893.25
2023-04-18T08:55:19.059Z,95896.16
2023-04-18T08:57:50.377Z,95898.47
2023-04-18T09:00:20.737Z,95900.34
2023-04-18T09:02:55.017Z,95901.09
2023-04-18T09:05:27.488Z,95909.16
2023-04-18T09:07:58.541Z,95901.59
2023-04-18T09:10:32.925Z,95898.97
2023-04-18T09:13:04.639Z,95908.13
2023-04-18T09:15:34.411Z,95907.38
2023-04-18T09:18:04.085Z,95904.44
2023-04-18T09:20:41.187Z,95905.00
2023-04-18T09:23:21.444Z,95907.94
2023-04-18T09:25:53.222Z,95903.06
2023-04-18T09:28:28.735Z,95902.50
2023-04-18T09:31:01.828Z,95901.16
2023-04-18T09:33:33.445Z,95906.53
2023-04-18T09:36:19.953Z,95910.28
2023-04-18T09:38:56.284Z,95901.66
2023-04-18T09:41:27.068Z,95905.97
2023-04-18T09:44:14.634Z,95900.88
2023-04-18T09:46:47.124Z,95904.75
2023-04-18T09:49:18.880Z,95902.13
2023-04-18T09:51:51.757Z,95900.38
2023-04-18T09:54:25.858Z,95897.19
2023-04-18T09:56:56.395Z,95895.06
2023-04-18T09:59:41.231Z,95890.34
2023-04-18T10:02:51.966Z,95886.59
2023-04-18T10:05:26.796Z,95899.72
2023-04-18T10:07:56.958Z,95902.97
2023-04-18T10:10:28.226Z,95900.03
2023-04-18T10:13:00.126Z,95901.44
2023-04-18T10:15:32.138Z,95903.06
2023-04-18T10:18:06.211Z,95893.16
2023-04-18T10:20:36.474Z,95898.53
2023-04-18T10:23:48.648Z,95898.31
2023-04-18T10:26:19.535Z,95900.81
2023-04-18T10:28:56.849Z,95891.41
2023-04-18T10:31:30.157Z,95897.38
2023-04-18T10:36:33.014Z,95891.31
2023-04-18T10:39:21.537Z,95882.16
2023-04-18T10:41:52.828Z,95884.91
2023-04-18T10:44:23.928Z,95884.94
2023-04-18T10:47:22.943Z,95885.75
2023-04-18T10:50:01.178Z,95878.75
2023-04-18T10:52:32.291Z,95878.78
2023-04-18T10:55:18.582Z,95876.91
2023-04-18T10:57:51.693Z,95868.78
2023-04-18T11:00:24.088Z,95863.38
2023-04-18T11:02:57.818Z,95865.00
2023-04-18T11:05:30.590Z,95863.09
2023-04-18T11:08:00.200Z,95860.13
2023-04-18T11:10:29.770Z,95858.78
2023-04-18T11:13:04.618Z,95862.56
2023-04-18T11:15:39.808Z,95857.72
2023-04-18T11:18:11.108Z,95868.78
2023-04-18T11:20:47.805Z,95858.78
2023-04-18T11:23:20.929Z,95859.06
2023-04-18T11:25:54.495Z,95862.56
2023-04-18T11:28:25.972Z,95852.34
2023-04-18T11:31:00.459Z,95862.31
2023-04-18T11:33:31.272Z,95869.59
2023-04-18T11:36:01.076Z,95872.84
2023-04-18T11:38:31.794Z,95869.06
2023-04-18T11:41:04.051Z,95876.34
2023-04-18T11:43:35.372Z,95872.56
2023-04-18T11:46:05.010Z,95867.97
2023-04-18T11:48:37.937Z,95872.03
2023-04-18T11:51:09.327Z,95875.25
2023-04-18T11:53:40.225Z,95874.16
2023-04-18T11:56:09.692Z,95889.53
2023-04-18T11:58:40.551Z,95883.84
2023-04-18T12:01:21.352Z,95881.97
2023-04-18T12:04:12.076Z,95882.47
2023-04-18T12:06:47.919Z,95878.72
2023-04-18T12:09:18.076Z,95878.75
2023-04-18T12:11:59.484Z,95877.41
2023-04-18T12:14:31.389Z,95880.38
2023-04-18T12:17:04.052Z,95892.50
2023-04-18T12:19:34.271Z,95887.91
2023-04-18T12:22:06.564Z,95900.00
2023-04-18T12:24:37.912Z,95894.88
2023-04-18T12:27:07.548Z,95883.03
2023-04-18T12:29:38.378Z,95892.75
2023-04-18T12:32:07.917Z,95888.44
2023-04-18T12:34:37.341Z,95877.91
2023-04-18T12:37:07.002Z,95884.38
2023-04-18T12:39:36.443Z,95883.34
2023-04-18T12:42:06.621Z,95881.44
2023-04-18T12:44:37.894Z,95883.09
2023-04-18T12:47:07.494Z,95875.28
2023-04-18T12:49:37.122Z,95878.25
2023-04-18T12:52:06.977Z,95878.75
2023-04-18T12:54:37.982Z,95871.22
2023-04-18T12:57:07.788Z,95869.59
2023-04-18T12:59:38.646Z,95876.59
2023-04-18T13:02:08.350Z,95875.25
2023-04-18T13:04:37.937Z,95870.94
2023-04-18T13:07:07.620Z,95873.63
2023-04-18T13:09:37.577Z,95880.13
2023-04-18T13:12:07.911Z,95871.25
2023-04-18T13:14:39.108Z,95881.47
2023-04-18T13:17:08.893Z,95874.47
2023-04-18T13:19:38.373Z,95876.34
2023-04-18T13:22:07.970Z,95875.78
2023-04-18T13:24:37.485Z,95873.88
2023-04-18T13:27:10.480Z,95879.28
2023-04-18T13:29:43.826Z,95869.56
2023-04-18T13:32:13.869Z,95877.09
2023-04-18T13:34:46.648Z,95873.88
2023-04-18T13:37:16.716Z,95878.19
2023-04-18T13:39:46.325Z,95883.84
2023-04-18T13:42:16.350Z,95873.88
2023-04-18T13:44:48.072Z,95888.97
2023-04-18T13:47:18.008Z,95886.28
2023-04-18T13:49:47.528Z,95888.16
2023-04-18T13:52:17.445Z,95886.81
2023-04-18T13:54:47.052Z,95894.66
2023-04-18T13:57:16.573Z,95886.84
2023-04-18T13:59:47.357Z,95888.97
2023-04-18T14:02:17.109Z,95891.13
2023-04-18T14:04:46.816Z,95893.81
2023-04-18T14:07:16.538Z,95879.78
2023-04-18T14:09:46.097Z,95888.44
2023-04-18T14:12:15.707Z,95891.66
2023-04-18T14:14:46.535Z,95889.50
2023-04-18T14:17:16.067Z,95891.63
2023-04-18T14:19:45.485Z,95890.03
2023-04-18T14:22:14.942Z,95891.34
2023-04-18T14:24:44.403Z,95886.75
2023-04-18T14:27:13.902Z,95894.84
2023-04-18T14:29:43.342Z,95895.66
2023-04-18T14:32:14.467Z,95897.78
2023-04-18T14:34:43.952Z,95897.25
2023-04-18T14:37:14.975Z,95900.75
2023-04-18T14:39:45.178Z,95904.00
2023-04-18T14:42:14.717Z,95900.19
2023-04-18T14:44:44.222Z,95896.94
2023-04-18T14:47:15.109Z,95898.25
2023-04-18T14:49:44.571Z,95900.91
2023-04-18T14:52:14.339Z,95898.19
2023-04-18T14:54:43.965Z,95898.41
2023-04-18T14:57:13.552Z,95901.88
2023-04-18T14:59:43.049Z,95914.78
2023-04-18T15:02:14.037Z,95909.88
2023-04-18T15:04:44.004Z,95913.06
2023-04-18T15:07:13.628Z,95914.88
2023-04-18T15:09:43.174Z,95918.66
2023-04-18T15:12:12.632Z,95912.16
2023-04-18T15:14:42.265Z,95917.19
2023-04-18T15:17:11.920Z,95915.50
2023-04-18T15:19:42.845Z,95923.00
2023-04-18T15:22:12.305Z,95920.56
2023-04-18T15:24:41.980Z,95924.84
2023-04-18T15:27:12.360Z,95923.72
2023-04-18T15:29:41.846Z,95921.28
2023-04-18T15:32:11.556Z,95933.38
2023-04-18T15:34:42.414Z,95925.81
2023-04-18T15:37:11.949Z,95931.94
2023-04-18T15:39:41.414Z,95930.06
2023-04-18T15:42:10.908Z,95928.13
2023-04-18T15:44:40.371Z,95928.06
2023-04-18T15:47:09.921Z,95928.28
2023-04-18T15:49:39.351Z,95930.09
2023-04-18T15:52:10.191Z,95933.81
2023-04-18T15:54:42.787Z,95934.06
2023-04-18T15:57:12.891Z,95936.69
2023-04-18T15:59:42.318Z,95938.00
2023-04-18T16:02:11.833Z,95935.59
2023-04-18T16:04:41.410Z,95947.13
2023-04-18T16:07:13.350Z,95949.00
2023-04-18T16:09:42.916Z,95945.75
2023-04-18T16:12:12.351Z,95943.31
2023-04-18T16:14:41.847Z,95949.19
2023-04-18T16:17:11.305Z,95941.16
2023-04-18T16:19:41.025Z,95943.81
2023-04-18T16:22:12.373Z,95940.66
2023-04-18T16:24:42.358Z,95944.91
2023-04-18T16:27:11.881Z,95933.34
2023-04-18T16:29:41.363Z,95941.66
2023-04-18T16:32:10.870Z,95938.16
2023-04-18T16:34:40.416Z,95941.63
2023-04-18T16:37:11.288Z,95939.69
2023-04-18T16:39:40.817Z,95938.31
2023-04-18T16:42:10.307Z,95939.88
2023-04-18T16:44:40.330Z,95941.75
2023-04-18T16:47:09.875Z,95943.06
2023-04-18T16:49:39.418Z,95934.19
2023-04-18T16:52:09.079Z,95934.44
2023-04-18T16:54:40.620Z,95935.50
2023-04-18T16:57:10.131Z,95939.50
2023-04-18T16:59:39.572Z,95929.81
2023-04-18T17:02:09.330Z,95932.50
2023-04-18T17:04:39.084Z,95936.00
2023-04-18T17:07:09.251Z,95940.88
2023-04-18T17:09:40.047Z,95936.06
2023-04-18T17:12:09.687Z,95938.75
2023-04-18T17:14:39.160Z,95940.63
2023-04-18T17:17:08.661Z,95944.34
2023-04-18T17:19:38.132Z,95941.44
2023-04-18T17:22:07.572Z,95948.66
2023-04-18T17:24:37.260Z,95949.72
2023-04-18T17:27:08.112Z,95948.09
2023-04-18T17:29:37.612Z,95948.34
2023-04-18T17:32:07.737Z,95952.09
2023-04-18T17:34:37.351Z,95953.97
2023-04-18T17:37:06.884Z,95953.41
2023-04-18T17:39:36.525Z,95952.31
2023-04-18T17:42:07.486Z,95952.56
2023-04-18T17:44:39.626Z,95953.88
2023-04-18T17:47:09.263Z,95959.47
2023-04-18T17:49:38.777Z,95959.72
2023-04-18T17:52:08.614Z,95959.16
2023-04-18T17:54:38.258Z,95962.66
2023-04-18T17:57:09.138Z,95966.16
2023-04-18T17:59:38.649Z,95970.72
2023-04-18T18:02:08.751Z,95964.78
2023-04-18T18:04:39.474Z,95969.34
2023-04-18T18:07:09.448Z,95965.03
2023-04-18T18:09:39.073Z,95974.16
2023-04-18T18:12:10.836Z,95975.78
2023-04-18T18:14:41.285Z,95975.19
2023-04-18T18:17:10.915Z,95981.38
2023-04-18T18:19:40.525Z,95980.00
2023-04-18T18:22:10.037Z,95981.88
2023-04-18T18:24:39.619Z,95986.44
2023-04-18T18:27:10.854Z,95994.72
2023-04-18T18:29:40.407Z,95987.72
2023-04-18T18:32:09.936Z,95996.59
2023-04-18T18:34:39.410Z,95989.03
2023-04-18T18:37:08.852Z,95998.72
2023-04-18T18:39:38.332Z,95999.53
2023-04-18T18:42:09.246Z,96000.03
2023-04-18T18:44:52.037Z,96006.44
2023-04-18T18:47:21.624Z,96008.06
2023-04-18T18:49:51.178Z,96004.56
2023-04-18T18:52:20.655Z,96005.63
2023-04-18T18:54:50.125Z,96011.28
2023-04-18T18:57:21.444Z,96011.53
2023-04-18T18:59:51.550Z,96012.56
2023-04-18T19:02:22.081Z,96013.38
2023-04-18T19:04:51.685Z,96009.91
2023-04-18T19:07:21.348Z,96012.00
2023-04-18T19:09:50.962Z,96013.88
2023-04-18T19:12:21.863Z,96019.25
2023-04-18T19:14:51.612Z,96016.56
2023-04-18T19:17:24.490Z,96021.13
2023-04-18T19:19:57.894Z,96021.13
2023-04-18T19:22:27.434Z,96026.72
2023-04-18T19:24:57.266Z,96029.16
2023-04-18T19:27:28.306Z,96016.81
2023-04-18T19:29:57.836Z,96024.28
2023-04-18T19:32:27.565Z,96029.66
2023-04-18T19:34:57.064Z,96023.47
2023-04-18T19:37:26.677Z,96027.47
2023-04-18T19:39:56.159Z,96031.78
2023-04-18T19:42:27.234Z,96026.66
2023-04-18T19:44:57.227Z,96029.56
2023-04-18T19:47:27.960Z,96024.22
2023-04-18T19:49:57.548Z,96032.50
2023-04-18T19:52:27.340Z,96035.19
2023-04-18T19:54:56.910Z,96030.06
2023-04-18T19:57:28.911Z,96026.81
2023-04-18T19:59:58.409Z,96028.09
2023-04-18T20:02:28.013Z,96031.03
2023-04-18T20:04:57.808Z,96032.59
2023-04-18T20:07:27.383Z,96030.16
2023-04-18T20:09:57.002Z,96031.22
2023-04-18T20:12:28.408Z,96035.19
2023-04-18T20:14:58.983Z,96034.88
2023-04-18T20:17:30.461Z,96034.53
2023-04-18T20:20:00.686Z,96034.53
2023-04-18T20:22:32.198Z,96036.66
2023-04-18T20:25:01.794Z,96033.38
2023-04-18T20:27:32.811Z,96033.84
2023-04-18T20:30:02.349Z,96031.41
2023-04-18T20:32:32.207Z,96034.34
2023-04-18T20:35:02.712Z,96030.03
2023-04-18T20:37:36.772Z,96031.91
2023-04-18T20:40:11.091Z,96039.63
2023-04-18T20:42:41.975Z,96029.63
2023-04-18T20:45:12.287Z,96033.03
2023-04-18T20:47:42.744Z,96029.69
2023-04-18T20:50:14.022Z,96034.97
2023-04-18T20:52:43.617Z,96034.88
2023-04-18T20:55:13.660Z,96033.19
2023-04-18T20:57:44.695Z,96033.66
2023-04-18T21:00:16.034Z,96041.13
2023-04-18T21:02:46.115Z,96035.91
2023-04-18T21:05:15.586Z,96031.84
2023-04-18T21:07:45.853Z,96039.28
2023-04-18T21:10:15.839Z,96037.91
2023-04-18T21:12:46.792Z,96031.50
2023-04-18T21:15:16.508Z,96033.59
2023-04-18T21:17:46.111Z,96040.59
2023-04-18T21:20:15.886Z,96031.50
2023-04-18T21:22:45.428Z,96036.03
2023-04-18T21:25:16.461Z,96041.41
2023-04-18T21:27:47.347Z,96034.75
2023-04-18T21:30:16.814Z,96035.81
2023-04-18T21:32:47.136Z,96036.84
2023-04-18T21:35:19.378Z,96035.81
2023-04-18T21:37:49.892Z,96046.50
2023-04-18T21:40:19.891Z,96043.03
2023-04-18T21:42:51.002Z,96036.84
2023-04-18T21:45:20.623Z,96034.97
2023-04-18T21:47:50.758Z,96030.91
2023-04-18T21:50:20.470Z,96035.47
2023-04-18T21:52:49.970Z,96034.66
2023-04-18T21:55:19.683Z,96037.31
2023-04-18T21:57:50.993Z,96026.06
2023-04-18T22:00:21.455Z,96033.84
2023-04-18T22:02:51.336Z,96031.44
2023-04-18T22:05:21.370Z,96031.16
2023-04-18T22:07:57.902Z,96037.59
2023-04-18T22:10:27.936Z,96031.97
2023-04-18T22:13:00.144Z,96030.91
2023-04-18T22:15:30.051Z,96026.88
2023-04-18T22:17:59.637Z,96031.16
2023-04-18T22:20:29.472Z,96026.63
2023-04-18T22:22:58.953Z,96025.56
2023-04-18T22:25:28.450Z,96023.94
2023-04-18T22:27:59.323Z,96025.00
2023-04-18T22:30:29.352Z,96030.38
2023-04-18T22:32:59.627Z,96017.22
2023-04-18T22:35:29.443Z,96024.19
2023-04-18T22:37:58.895Z,96020.72
2023-04-18T22:40:28.509Z,96018.28
2023-04-18T22:42:59.401Z,96018.75
2023-04-18T22:45:28.955Z,96021.41
2023-04-18T22:47:58.458Z,96020.59
2023-04-18T22:50:28.035Z,96019.78
2023-04-18T22:52:58.170Z,96029.69
2023-04-18T22:55:27.698Z,96025.38
2023-04-18T22:57:58.518Z,96025.88
2023-04-18T23:00:28.100Z,96027.72
2023-04-18T23:02:57.850Z,96023.19
2023-04-18T23:05:27.602Z,96024.25
2023-04-18T23:08:00.103Z,96016.19
2023-04-18T23:10:30.326Z,96031.22
2023-04-18T23:13:01.244Z,96024.00
2023-04-18T23:15:30.877Z,96021.31
2023-04-18T23:18:00.519Z,96024.00
2023-04-18T23:20:29.976Z,96022.94
2023-04-18T23:22:59.485Z,96025.63
2023-04-18T23:25:29.298Z,96022.72
2023-04-18T23:28:00.242Z,96018.88
2023-04-18T23:30:29.776Z,96023.41
2023-04-18T23:32:59.286Z,96017.25
2023-04-18T23:35:28.905Z,96016.44
2023-04-18T23:37:58.392Z,96017.25
2023-04-18T23:40:27.918Z,96014.00
2023-04-18T23:42:57.451Z,96019.13
2023-04-18T23:45:28.810Z,96014.81
2023-04-18T23:47:58.359Z,96012.13
2023-04-18T23:50:27.938Z,96013.19
2023-04-18T23:52:57.518Z,96011.31
2023-04-18T23:55:27.057Z,96008.06
2023-04-18T23:57:56.577Z,96002.94
